Terminal Aerodrome Forecast
Issued by NWS

Home | Current Version | Previous Version | Text Only | Print | Product List | Glossary On
Versions: 1 2 3 4 5 6 7 8 9 10 11 12
404
FTUS42 KMLB 182320
TAFFPR
TAF
KFPR 182320Z 1900/1924 28003KT P6SM FEW045
     FM190900 30003KT 5SM BR SCT250
     FM191400 34004KT P6SM SCT250=

USA.gov is the U.S. government's official web portal to all federal, state and local government web resources and services.